Weather at North Cedar Airport [CLOSED]

Public forecast

Using degrees Fahrenheit for public forecast. Weather courtesy of forecast.io.

Closest aviation weather report (METAR) to North Cedar Airport

Closest report is Fremont Municipal Airport, 22.4 nm (41.5 km) WNW. Retrieved 2020/09/19 11:35 UTC (0 seconds ago):

KFFX 191135Z AUTO 00000KT 10SM CLR 02/01 A3040 RMK AO2 T00230006

Closest aviation forecast (TAF) to North Cedar Airport

Closest forecast is Gerald R. Ford International Airport, 22.7 nm (42.0 km) S. Retrieved 2020/09/19 06:42 UTC (5 hours ago):

TAF KGRR 190540Z 1906/2006 VRB03KT P6SM SKC FM191400 11007KT P6SM SKC